Airfield :
LOGIN :

Register | Disclaimer

   EN    FR    IT 

 










Legend :    VFR   Marginal VFR   IFR   Intensive IFR   Very Intensive IFR
Visi :
Ceiling :
>= 8 km
>= 3000ft
5 to 8 km
1000 to 3000 ft
1500m to 5 km
500 to 1000 ft
800 to 1500m
200 to 500 ft
< 800m
< 200 ft
Symbols :   Thunderstorms  Fog  Heavy snow  Heavy precipitations  Wind > 20 kt
SIGMETs :     Misc.  Thunderstorms  Icing  Turbulence  Mountain Waves  Volcanic Ashes






- Airport Elevation : 17 ft
- IATA code : GRQ


EHGG - Groningen Eelde

CURRENT METAR :
  • 211955Z AUTO 11004KT 080V140 4700 BR NSC 03/03 Q1007 TEMPO 3500 BKN003

EXPIRED METARs :
  • 211925Z AUTO 10004KT 070V130 4800 BR BKN011 04/03 Q1007 TEMPO 3500 BKN003
  • 211855Z AUTO 11004KT 080V140 5000 BR FEW009 OVC011 04/03 Q1007 NOSIG
  • 211825Z AUTO 13006KT 080V170 6000 FEW004 BKN005 OVC007 04/04 Q1007 BECMG 2500 BKN003
  • 211755Z AUTO 12005KT 070V160 4300 BR BKN003 OVC004 04/04 Q1007 BECMG 2500 BKN003
  • 211725Z AUTO 12006KT 070V160 5000 BR SCT003 OVC005 04/04 Q1007 BECMG 2500 BKN003

TAF COR TAF EHGG
Valid from the 21 at 18:00 until the 23 at 00:00 UTC


211726Z 2118/2224 12006KT 5000 BR BKN005
BECMG 2118/2121 2500 BKN003
PROB40 2118/2203 1200 BKN001
BECMG 2206/2209 15011KT 4000 NSC
BECMG 2210/2212 7000 NSW
BECMG 2216/2219 4000 BR
PROB40 2221/2224 10012KT BKN003



MET'MAP, your aeronautical weather chart ! - Copyright ORBIFLY December 2007 - Disclaimer

ORBIFLY MET'MAP TEAM :

Programming & Development : Alexandra Zaïnal
Concept & Development : Baudouin d'Aumeries
Co-Development & Prog : Marc-Olivier Méhu
Technical & hardware support : Manuel Goepfert

Contact : metmap@orbifly.com




SOURCES & CREDITS :

   NOAA